.
WxDataArchive / Data Records for 2014-10-16
2014-10-15 October 2014 2014-10-17

Data Records for Thursday, 16 October 2014

Time	Temp	Chill	HIndex	Humid	Dewpt	 Wind 	HiWind	WindDir	Rain 	Barom
-----	----	-----	------	-----	-----	------	------	-------	-----	-----
00:00	54.1	54.1	54.1	94	52.4	0	0	---	0.00	29.747 
00:05	54.1	54.1	54.1	94	52.4	0	0	---	0.00	29.747 
00:10	54.2	54.2	54.2	94	52.5	0	0	---	0.00	29.747 
00:15	54.2	54.2	54.2	94	52.5	0	0	---	0.00	29.745 
00:20	54.4	54.4	54.4	94	52.7	0	0	---	0.00	29.745 
00:25	54.4	54.4	54.4	94	52.7	0	0	---	0.00	29.745 
00:30	54.4	54.4	54.4	94	52.7	0	0	---	0.00	29.743 
00:35	54.4	54.4	54.4	94	52.7	0	1	135	0.00	29.743 
00:40	54.4	54.4	54.4	94	52.7	0	0	---	0.00	29.743 
00:45	54.4	54.4	54.4	94	52.7	0	0	---	0.00	29.740 
00:50	54.4	54.4	54.4	95	53.0	0	0	---	0.00	29.740 
00:55	54.5	54.5	54.5	94	52.8	0	0	---	0.00	29.740 
01:00	54.5	54.5	54.5	95	53.1	0	0	---	0.00	29.737 
01:05	54.5	54.5	54.5	95	53.1	0	0	---	0.00	29.737 
01:10	54.4	54.4	54.4	95	53.0	0	0	---	0.00	29.737 
01:15	54.4	54.4	54.4	95	53.0	0	0	---	0.00	29.730 
01:20	54.2	54.2	54.2	95	52.8	0	0	---	0.00	29.730 
01:25	54.1	54.1	54.1	95	52.7	0	0	---	0.00	29.730 
01:30	54.1	54.1	54.1	95	52.7	0	0	---	0.00	29.728 
01:35	53.9	53.9	53.9	95	52.5	0	0	---	0.00	29.728 
01:40	53.9	53.9	53.9	95	52.5	0	0	---	0.00	29.728 
01:45	53.9	53.9	53.9	95	52.5	0	0	---	0.00	29.728 
01:50	53.9	53.9	53.9	95	52.5	0	0	---	0.00	29.728 
01:55	53.9	53.9	53.9	95	52.5	0	0	---	0.00	29.728 
02:00	53.9	53.9	53.9	95	52.5	0	0	---	0.00	29.728 
02:05	53.9	53.9	53.9	95	52.5	0	0	---	0.00	29.728 
02:10	53.9	53.9	53.9	95	52.5	0	0	---	0.00	29.728 
02:15	53.8	53.8	53.8	95	52.4	0	0	---	0.00	29.725 
02:20	53.8	53.8	53.8	95	52.4	0	0	---	0.00	29.725 
02:25	53.8	53.8	53.8	95	52.4	0	0	---	0.00	29.725 
02:30	53.8	53.8	53.8	95	52.4	0	0	---	0.00	29.725 
02:35	53.8	53.8	53.8	95	52.4	0	0	---	0.00	29.725 
02:40	53.6	53.6	53.6	95	52.2	0	0	---	0.00	29.725 
02:45	53.6	53.6	53.6	95	52.2	0	0	---	0.00	29.723 
02:50	53.6	53.6	53.6	95	52.2	0	0	---	0.00	29.723 
02:55	53.5	53.5	53.5	95	52.1	0	0	---	0.00	29.723 
03:00	53.3	53.3	53.3	95	51.9	0	0	---	0.00	29.727 
03:05	52.9	52.9	52.9	95	51.5	0	0	---	0.00	29.727 
03:10	52.8	52.8	52.8	95	51.4	0	0	---	0.00	29.727 
03:15	52.6	52.6	52.6	95	51.2	0	0	---	0.00	29.729 
03:20	52.6	52.6	52.6	95	51.2	0	0	---	0.00	29.729 
03:25	52.6	52.6	52.6	95	51.2	0	0	---	0.00	29.729 
03:30	52.8	52.8	52.8	95	51.4	0	0	---	0.00	29.725 
03:35	52.8	52.8	52.8	95	51.4	0	0	---	0.00	29.725 
03:40	52.9	52.9	52.9	95	51.5	0	0	---	0.00	29.725 
03:45	52.9	52.9	52.9	95	51.5	0	0	---	0.00	29.717 
03:50	53.1	53.1	53.1	95	51.7	0	0	---	0.00	29.717 
03:55	53.2	53.2	53.2	95	51.8	0	0	---	0.00	29.717 
04:00	53.3	53.3	53.3	96	52.2	0	0	---	0.00	29.715 
04:05	53.5	53.5	53.5	96	52.4	0	0	---	0.00	29.715 
04:10	53.5	53.5	53.5	95	52.1	0	0	---	0.00	29.715 
04:15	53.6	53.6	53.6	96	52.5	0	0	---	0.00	29.711 
04:20	53.6	53.6	53.6	96	52.5	0	0	---	0.00	29.711 
04:25	53.6	53.6	53.6	96	52.5	0	1	135	0.00	29.711 
04:30	53.8	53.8	53.8	96	52.7	0	1	135	0.00	29.722 
04:35	53.8	53.8	53.8	96	52.7	0	0	---	0.00	29.722 
04:40	53.8	53.8	53.8	96	52.7	0	0	---	0.00	29.722 
04:45	53.8	53.8	53.8	96	52.7	0	0	---	0.00	29.721 
04:50	53.8	53.8	53.8	96	52.7	0	0	---	0.00	29.721 
04:55	53.8	53.8	53.8	96	52.7	0	0	---	0.00	29.721 
05:00	53.9	53.9	53.9	96	52.8	0	0	---	0.00	29.723 
05:05	53.9	53.9	53.9	96	52.8	0	0	---	0.00	29.723 
05:10	53.9	53.9	53.9	96	52.8	0	0	---	0.00	29.723 
05:15	53.8	53.8	53.8	96	52.7	0	0	---	0.00	29.725 
05:20	53.8	53.8	53.8	96	52.7	0	0	---	0.00	29.725 
05:25	53.9	53.9	53.9	96	52.8	0	0	---	0.00	29.725 
05:30	53.9	53.9	53.9	96	52.8	0	0	---	0.00	29.730 
05:35	53.8	53.8	53.8	96	52.7	0	0	---	0.00	29.730 
05:40	53.8	53.8	53.8	96	52.7	0	0	---	0.00	29.730 
05:45	53.9	53.9	53.9	96	52.8	0	0	---	0.00	29.739 
05:50	53.8	53.8	53.8	96	52.7	0	0	---	0.00	29.739 
05:55	53.8	53.8	53.8	96	52.7	0	0	---	0.00	29.739 
06:00	53.8	53.8	53.8	96	52.7	0	0	---	0.00	29.740 
06:05	53.6	53.6	53.6	96	52.5	0	0	---	0.00	29.740 
06:10	53.6	53.6	53.6	96	52.5	0	0	---	0.00	29.740 
06:15	53.8	53.8	53.8	96	52.7	0	0	---	0.00	29.740 
06:20	53.8	53.8	53.8	96	52.7	0	0	---	0.00	29.740 
06:25	53.6	53.6	53.6	96	52.5	0	0	---	0.00	29.740 
06:30	53.6	53.6	53.6	96	52.5	0	0	---	0.00	29.726 
06:35	53.3	53.3	53.3	96	52.2	0	0	---	0.00	29.726 
06:40	53.1	53.1	53.1	96	52.0	0	0	---	0.00	29.726 
06:45	52.8	52.8	52.8	96	51.7	0	0	---	0.00	29.732 
06:50	52.6	52.6	52.6	96	51.5	0	0	---	0.00	29.732 
06:55	52.5	52.5	52.5	96	51.4	0	1	135	0.00	29.732 
07:00	52.8	52.8	52.8	96	51.7	0	0	---	0.00	29.746 
07:05	52.9	52.9	52.9	96	51.8	0	1	135	0.00	29.746 
07:10	53.1	53.1	53.1	96	52.0	0	1	135	0.00	29.746 
07:15	53.2	53.2	53.2	96	52.1	0	0	---	0.00	29.750 
07:20	53.2	53.2	53.2	96	52.1	0	0	---	0.00	29.750 
07:25	53.2	53.2	53.2	96	52.1	0	0	---	0.00	29.750 
07:30	53.3	53.3	53.3	96	52.2	0	2	135	0.00	29.759 
07:35	53.3	53.3	53.3	96	52.2	0	0	---	0.00	29.759 
07:40	53.3	53.3	53.3	96	52.2	0	0	---	0.00	29.759 
07:45	53.3	53.3	53.3	96	52.2	0	0	---	0.00	29.761 
07:50	53.2	53.2	53.2	96	52.1	0	0	---	0.00	29.761 
07:55	53.2	53.2	53.2	96	52.1	0	0	---	0.00	29.761 
08:00	53.2	53.2	53.2	96	52.1	0	0	---	0.00	29.760 
08:05	53.1	53.1	53.1	96	52.0	0	0	---	0.00	29.760 
08:10	53.1	53.1	53.1	96	52.0	0	0	---	0.00	29.760 
08:15	53.1	53.1	53.1	96	52.0	0	0	---	0.00	29.755 
08:20	53.2	53.2	53.2	96	52.1	0	0	---	0.00	29.755 
08:25	53.2	53.2	53.2	96	52.1	0	0	---	0.00	29.755 
08:30	53.2	53.2	53.2	96	52.1	0	0	---	0.00	29.758 
08:35	53.3	53.3	53.3	96	52.2	0	0	---	0.00	29.758 
08:40	53.5	53.5	53.5	96	52.4	0	0	---	0.00	29.758 
08:45	53.6	53.6	53.6	96	52.5	0	0	---	0.00	29.771 
08:50	53.8	53.8	53.8	96	52.7	0	0	---	0.00	29.771 
08:55	53.9	53.9	53.9	96	52.8	0	0	---	0.00	29.771 
09:00	54.1	54.1	54.1	96	53.0	0	1	135	0.00	29.780 
09:05	54.2	54.2	54.2	96	53.1	0	3	135	0.00	29.780 
09:10	54.2	54.2	54.2	96	53.1	0	3	248	0.00	29.780 
09:15	54.2	54.2	54.2	96	53.1	0	1	248	0.00	29.779 
09:20	54.2	54.2	54.2	96	53.1	0	1	248	0.00	29.779 
09:25	54.1	54.1	54.1	96	53.0	0	0	---	0.00	29.779 
09:30	54.2	54.2	54.2	96	53.1	0	0	---	0.00	29.766 
09:35	54.2	54.2	54.2	96	53.1	0	0	---	0.00	29.766 
09:40	54.4	54.4	54.4	96	53.3	0	0	---	0.00	29.766 
09:45	54.5	54.5	54.5	96	53.4	0	0	---	0.00	29.760 
09:50	54.5	54.5	54.5	96	53.4	0	0	---	0.00	29.760 
09:55	54.7	54.7	54.7	96	53.6	0	1	248	0.00	29.760 
10:00	54.7	54.7	54.7	96	53.6	0	0	---	0.00	29.759 
10:05	54.8	54.8	54.8	96	53.7	0	0	---	0.00	29.759 
10:10	55.0	55.0	55.0	96	53.9	0	2	248	0.00	29.759 
10:15	55.0	55.0	55.0	96	53.9	0	1	248	0.00	29.770 
10:20	55.0	55.0	55.0	96	53.9	0	1	248	0.00	29.770 
10:25	55.0	55.0	55.0	96	53.9	0	1	248	0.00	29.770 
10:30	55.0	55.0	55.0	96	53.9	0	1	248	0.00	29.772 
10:35	54.8	54.8	54.8	96	53.7	1	3	248	0.00	29.772 
10:40	55.0	55.0	55.0	95	53.6	0	2	248	0.00	29.772 
10:45	55.0	55.0	55.0	95	53.6	0	2	248	0.00	29.778 
10:50	55.0	55.0	55.0	95	53.6	1	4	248	0.00	29.778 
10:55	54.7	54.7	54.7	95	53.3	1	4	248	0.00	29.778 
11:00	54.7	54.7	54.7	95	53.3	1	3	248	0.00	29.783 
11:05	54.7	54.7	54.7	95	53.3	1	3	248	0.00	29.783 
11:10	54.7	54.7	54.7	95	53.3	1	3	248	0.00	29.783 
11:15	55.0	55.0	55.0	95	53.6	1	3	248	0.00	29.785 
11:20	55.1	55.1	55.1	95	53.7	0	3	248	0.00	29.785 
11:25	55.4	55.4	55.4	94	53.7	1	3	248	0.00	29.785 
11:30	55.7	55.7	55.7	94	54.0	1	2	248	0.00	29.778 
11:35	56.0	56.0	56.0	94	54.3	1	3	248	0.00	29.778 
11:40	56.5	56.5	56.5	93	54.5	0	4	248	0.00	29.778 
11:45	56.3	56.3	56.3	92	54.0	1	3	248	0.00	29.786 
11:50	56.5	56.5	56.5	91	53.9	1	3	248	0.00	29.786 
11:55	56.5	56.5	56.5	91	53.9	1	3	248	0.00	29.786 
12:00	56.3	56.3	56.3	90	53.4	1	3	248	0.00	29.788 
12:05	56.3	56.3	56.3	90	53.4	1	3	248	0.00	29.788 
12:10	56.5	56.5	56.5	89	53.3	0	3	248	0.00	29.788 
12:15	56.5	56.5	56.5	89	53.3	0	2	248	0.00	29.785 
12:20	56.6	56.6	56.6	88	53.1	0	3	248	0.00	29.785 
12:25	56.7	56.7	56.7	88	53.2	0	1	248	0.00	29.785 
12:30	57.0	57.0	57.0	88	53.5	0	2	248	0.00	29.776 
12:35	57.5	57.5	57.5	88	54.0	0	2	248	0.00	29.776 
12:40	58.0	58.0	58.0	87	54.1	0	2	248	0.00	29.776 
12:45	58.4	58.4	58.4	85	53.9	0	2	248	0.00	29.774 
12:50	58.7	58.7	58.7	84	53.9	0	3	248	0.00	29.774 
12:55	59.2	59.2	59.2	83	54.0	1	3	248	0.00	29.774 
13:00	59.5	59.5	59.5	82	54.0	1	2	248	0.00	29.773 
13:05	59.5	59.5	59.5	81	53.7	1	3	248	0.00	29.773 
13:10	60.2	60.2	60.2	80	54.0	1	3	248	0.00	29.773 
13:15	60.7	60.7	60.7	78	53.8	1	4	248	0.00	29.766 
13:20	60.7	60.7	60.7	78	53.8	0	2	248	0.00	29.766 
13:25	61.2	61.2	61.2	79	54.6	0	1	248	0.00	29.766 
13:30	61.5	61.5	61.5	76	53.9	1	3	248	0.00	29.755 
13:35	62.0	62.0	62.0	75	54.0	1	3	248	0.00	29.755 
13:40	62.3	62.3	62.3	74	53.9	0	3	248	0.00	29.755 
13:45	62.1	62.1	62.1	73	53.3	0	4	248	0.00	29.755 
13:50	61.8	61.8	61.8	73	53.0	1	3	248	0.00	29.755 
13:55	61.6	61.6	61.6	73	52.9	1	3	248	0.00	29.755 
14:00	61.3	61.3	61.3	74	52.9	1	3	248	0.00	29.752 
14:05	61.3	61.3	61.3	75	53.3	1	4	248	0.00	29.752 
14:10	61.3	61.3	61.3	75	53.3	0	2	248	0.00	29.752 
14:15	61.3	61.3	61.3	74	52.9	0	2	248	0.00	29.745 
14:20	61.2	61.2	61.2	74	52.8	0	2	248	0.00	29.745 
14:25	61.0	61.0	61.0	75	53.0	0	1	248	0.00	29.745 
14:30	61.0	61.0	61.0	75	53.0	0	1	248	0.00	29.742 
14:35	60.9	60.9	60.9	75	52.9	0	0	---	0.00	29.742 
14:40	60.9	60.9	60.9	75	52.9	0	1	248	0.00	29.742 
14:45	60.7	60.7	60.7	74	52.4	0	2	248	0.00	29.740 
14:50	60.7	60.7	60.7	75	52.7	0	0	---	0.00	29.740 
14:55	60.7	60.7	60.7	75	52.7	0	1	248	0.00	29.740 
15:00	60.9	60.9	60.9	75	52.9	0	2	248	0.00	29.739 
15:05	61.2	61.2	61.2	75	53.2	0	1	248	0.00	29.739 
15:10	61.5	61.5	61.5	75	53.5	0	2	248	0.00	29.739 
15:15	61.3	61.3	61.3	73	52.6	0	2	248	0.00	29.736 
15:20	61.3	61.3	61.3	73	52.6	0	2	248	0.00	29.736 
15:25	61.3	61.3	61.3	74	52.9	0	0	---	0.00	29.736 
15:30	61.2	61.2	61.2	74	52.8	0	2	248	0.00	29.730 
15:35	61.0	61.0	61.0	74	52.6	0	1	248	0.00	29.730 
15:40	61.0	61.0	61.0	74	52.6	0	1	248	0.00	29.730 
15:45	60.9	60.9	60.9	74	52.6	0	1	248	0.00	29.730 
15:50	61.0	61.0	61.0	75	53.0	0	2	248	0.00	29.730 
15:55	61.3	61.3	61.3	74	52.9	0	2	248	0.00	29.730 
16:00	61.6	61.6	61.6	75	53.6	0	1	248	0.00	29.726 
16:05	61.8	61.8	61.8	74	53.4	0	2	248	0.00	29.726 
16:10	61.6	61.6	61.6	73	52.9	0	1	248	0.00	29.726 
16:15	61.5	61.5	61.5	73	52.8	0	1	248	0.00	29.724 
16:20	61.5	61.5	61.5	73	52.8	0	1	248	0.00	29.724 
16:25	61.5	61.5	61.5	74	53.1	0	1	248	0.00	29.724 
16:30	61.5	61.5	61.5	73	52.8	0	1	248	0.00	29.723 
16:35	61.5	61.5	61.5	73	52.8	0	1	248	0.00	29.723 
16:40	61.3	61.3	61.3	73	52.6	0	1	248	0.00	29.723 
16:45	61.3	61.3	61.3	73	52.6	0	1	248	0.00	29.725 
16:50	61.2	61.2	61.2	74	52.8	0	1	248	0.00	29.725 
16:55	61.2	61.2	61.2	74	52.8	0	0	---	0.00	29.725 
17:00	61.0	61.0	61.0	74	52.6	0	0	---	0.00	29.728 
17:05	60.9	60.9	60.9	75	52.9	0	2	248	0.00	29.728 
17:10	60.9	60.9	60.9	74	52.6	0	2	248	0.00	29.728 
17:15	60.9	60.9	60.9	74	52.6	0	2	248	0.00	29.727 
17:20	60.9	60.9	60.9	73	52.2	0	2	248	0.00	29.727 
17:25	60.9	60.9	60.9	73	52.2	0	2	248	0.00	29.727 
17:30	60.9	60.9	60.9	74	52.6	0	2	248	0.00	29.727 
17:35	60.7	60.7	60.7	73	52.0	0	3	248	0.00	29.727 
17:40	60.7	60.7	60.7	73	52.0	1	5	248	0.00	29.727 
17:45	60.7	60.7	60.7	73	52.0	1	5	248	0.00	29.727 
17:50	60.7	60.7	60.7	73	52.0	1	3	248	0.00	29.727 
17:55	60.7	60.7	60.7	73	52.0	0	2	248	0.00	29.727 
18:00	60.7	60.7	60.7	71	51.2	1	3	248	0.00	29.729 
18:05	60.5	60.5	60.5	72	51.4	0	3	248	0.00	29.729 
18:10	60.5	60.5	60.5	73	51.8	0	3	248	0.00	29.729 
18:15	60.5	60.5	60.5	73	51.8	1	4	248	0.00	29.730 
18:20	60.5	60.5	60.5	73	51.8	1	3	248	0.00	29.730 
18:25	60.2	60.2	60.2	72	51.1	1	4	248	0.00	29.730 
18:30	60.1	60.1	60.1	72	51.0	1	4	248	0.00	29.730 
18:35	59.9	59.9	59.9	73	51.2	0	2	248	0.00	29.730 
18:40	59.6	59.6	59.6	73	50.9	0	1	248	0.00	29.730 
18:45	59.5	59.5	59.5	73	50.8	0	2	248	0.00	29.726 
18:50	59.3	59.3	59.3	73	50.6	0	1	248	0.00	29.726 
18:55	59.3	59.3	59.3	73	50.6	0	1	248	0.00	29.726 
19:00	59.2	59.2	59.2	73	50.5	0	2	248	0.00	29.725 
19:05	59.0	59.0	59.0	74	50.7	0	0	---	0.00	29.725 
19:10	58.9	58.9	58.9	74	50.6	0	1	248	0.00	29.725 
19:15	58.9	58.9	58.9	74	50.6	0	1	248	0.00	29.725 
19:20	58.7	58.7	58.7	75	50.8	0	1	248	0.00	29.725 
19:25	58.7	58.7	58.7	75	50.8	0	2	248	0.00	29.725 
19:30	58.7	58.7	58.7	76	51.2	0	2	248	0.00	29.728 
19:35	58.7	58.7	58.7	76	51.2	1	3	248	0.00	29.728 
19:40	58.6	58.6	58.6	76	51.1	1	3	248	0.00	29.728 
19:45	58.6	58.6	58.6	76	51.1	0	2	248	0.00	29.731 
19:50	58.4	58.4	58.4	77	51.2	0	3	248	0.00	29.731 
19:55	58.3	58.3	58.3	77	51.1	0	3	248	0.00	29.731 
20:00	58.3	58.3	58.3	77	51.1	1	3	248	0.00	29.735 
20:05	58.1	58.1	58.1	77	50.9	1	4	248	0.00	29.735 
20:10	58.1	58.1	58.1	77	50.9	0	3	248	0.00	29.735 
20:15	58.0	58.0	58.0	77	50.8	1	3	248	0.00	29.733 
20:20	58.0	58.0	58.0	78	51.2	0	2	248	0.00	29.733 
20:25	57.8	57.8	57.8	78	51.0	0	4	248	0.00	29.733 
20:30	57.8	57.8	57.8	79	51.3	0	1	248	0.00	29.739 
20:35	57.6	57.6	57.6	79	51.1	0	2	248	0.00	29.739 
20:40	57.5	57.5	57.5	79	51.0	0	2	248	0.00	29.739 
20:45	57.5	57.5	57.5	79	51.0	0	2	248	0.00	29.739 
20:50	57.5	57.5	57.5	79	51.0	0	2	248	0.00	29.739 
20:55	57.5	57.5	57.5	80	51.4	0	2	248	0.00	29.739 
21:00	57.3	57.3	57.3	80	51.2	0	2	248	0.00	29.742 
21:05	57.3	57.3	57.3	80	51.2	0	1	248	0.00	29.742 
21:10	57.2	57.2	57.2	80	51.1	0	1	248	0.00	29.742 
21:15	57.2	57.2	57.2	80	51.1	0	1	248	0.00	29.741 
21:20	57.2	57.2	57.2	80	51.1	0	2	248	0.00	29.741 
21:25	57.2	57.2	57.2	81	51.4	0	1	248	0.00	29.741 
21:30	57.2	57.2	57.2	81	51.4	0	1	248	0.00	29.741 
21:35	57.2	57.2	57.2	81	51.4	0	1	248	0.00	29.741 
21:40	57.2	57.2	57.2	81	51.4	0	1	248	0.00	29.741 
21:45	57.2	57.2	57.2	81	51.4	0	2	248	0.00	29.745 
21:50	57.2	57.2	57.2	81	51.4	0	3	248	0.00	29.745 
21:55	57.2	57.2	57.2	81	51.4	1	4	248	0.00	29.745 
22:00	57.2	57.2	57.2	81	51.4	0	1	248	0.00	29.742 
22:05	57.2	57.2	57.2	81	51.4	0	2	248	0.00	29.742 
22:10	57.2	57.2	57.2	81	51.4	0	2	248	0.00	29.742 
22:15	57.2	57.2	57.2	81	51.4	1	4	248	0.00	29.740 
22:20	57.2	57.2	57.2	81	51.4	1	3	248	0.00	29.740 
22:25	57.2	57.2	57.2	81	51.4	0	2	248	0.00	29.740 
22:30	57.0	57.0	57.0	81	51.2	0	3	248	0.00	29.742 
22:35	57.0	57.0	57.0	82	51.6	0	3	248	0.00	29.742 
22:40	57.0	57.0	57.0	81	51.2	0	3	248	0.00	29.742 
22:45	56.9	56.9	56.9	81	51.1	1	4	248	0.00	29.742 
22:50	56.9	56.9	56.9	80	50.8	1	3	248	0.00	29.742 
22:55	56.7	56.7	56.7	80	50.6	1	3	248	0.00	29.742 
23:00	56.7	56.7	56.7	80	50.6	0	2	248	0.00	29.739 
23:05	56.6	56.6	56.6	80	50.5	0	2	248	0.00	29.739 
23:10	56.6	56.6	56.6	79	50.2	1	3	248	0.00	29.739 
23:15	56.5	56.5	56.5	79	50.1	0	2	248	0.00	29.736 
23:20	56.5	56.5	56.5	79	50.1	1	3	248	0.00	29.736 
23:25	56.5	56.5	56.5	79	50.1	0	2	248	0.00	29.736 
23:30	56.5	56.5	56.5	79	50.1	0	2	248	0.00	29.732 
23:35	56.5	56.5	56.5	79	50.1	0	3	248	0.00	29.732 
23:40	56.3	56.3	56.3	79	49.9	0	3	248	0.00	29.732 
23:45	56.3	56.3	56.3	79	49.9	0	4	248	0.00	29.734 
23:50	56.3	56.3	56.3	79	49.9	0	2	248	0.00	29.734 
23:55	56.3	56.3	56.3	80	50.2	0	1	248	0.00	29.734 

CoCoRaHS
IN-AL-39
A2 Web Hosting
Creative Commons License
GoDaddy
search engine by freefind advanced

loaded 2018-11-15 05:11:51 • last modified 2010-11-18 10:43:29
Privacy PolicyDisclaimer
• wx.awcolley.com is powered by PmWiki v.2002016 •
• all content (unless otherwise noted) © 2018 A W Colley